createdAt,value
2023-01-21T00:01:16.499Z,10.07
2023-01-21T00:03:45.108Z,9.23
2023-01-21T00:06:17.707Z,8.37
2023-01-21T00:08:45.418Z,6.83
2023-01-21T00:11:15.539Z,10.17
2023-01-21T00:13:44.597Z,8.27
2023-01-21T00:16:13.591Z,37.00
2023-01-21T00:18:41.709Z,24.77
2023-01-21T00:21:09.789Z,20.37
2023-01-21T00:23:37.527Z,8.60
2023-01-21T00:26:07.884Z,11.63
2023-01-21T00:28:37.276Z,12.37
2023-01-21T00:31:09.198Z,9.87
2023-01-21T00:33:37.416Z,10.83
2023-01-21T00:36:11.606Z,8.97
2023-01-21T00:38:39.573Z,12.27
2023-01-21T00:41:10.894Z,10.10
2023-01-21T00:43:39.821Z,8.30
2023-01-21T00:46:07.847Z,10.70
2023-01-21T00:48:35.734Z,7.43
2023-01-21T00:51:04.101Z,8.57
2023-01-21T00:53:35.864Z,8.17
2023-01-21T00:56:07.192Z,8.23
2023-01-21T00:58:35.995Z,9.10
2023-01-21T01:01:11.289Z,8.20
2023-01-21T01:03:40.667Z,11.17
2023-01-21T01:06:18.600Z,8.57
2023-01-21T01:08:46.920Z,6.90
2023-01-21T01:11:15.847Z,8.40
2023-01-21T01:13:43.928Z,7.17
2023-01-21T01:16:15.217Z,9.73
2023-01-21T01:18:44.548Z,7.10
2023-01-21T01:21:16.689Z,8.80
2023-01-21T01:23:45.508Z,7.07
2023-01-21T01:26:17.175Z,7.30
2023-01-21T01:28:45.624Z,7.87
2023-01-21T01:31:17.020Z,7.80
2023-01-21T01:33:45.138Z,6.00
2023-01-21T01:36:20.665Z,7.03
2023-01-21T01:38:48.384Z,6.87
2023-01-21T01:41:20.189Z,6.27
2023-01-21T01:43:54.152Z,9.13
2023-01-21T01:46:24.484Z,9.77
2023-01-21T01:49:14.557Z,10.00
2023-01-21T01:51:50.440Z,8.47
2023-01-21T01:54:23.454Z,9.97
2023-01-21T01:56:55.478Z,9.43
2023-01-21T01:59:24.045Z,7.20
2023-01-21T02:01:52.082Z,7.33
2023-01-21T02:04:29.687Z,8.40
2023-01-21T02:06:58.144Z,11.17
2023-01-21T02:09:29.784Z,9.40
2023-01-21T02:12:01.022Z,8.60
2023-01-21T02:14:30.656Z,10.30
2023-01-21T02:17:39.299Z,12.90
2023-01-21T02:20:15.752Z,12.73
2023-01-21T02:23:20.585Z,11.33
2023-01-21T02:26:15.192Z,12.52
2023-01-21T02:29:14.236Z,11.77
2023-01-21T02:32:13.635Z,13.63
2023-01-21T02:34:56.848Z,17.20
2023-01-21T02:38:06.978Z,10.40
2023-01-21T02:40:54.925Z,13.67
2023-01-21T02:43:41.725Z,10.80
2023-01-21T02:46:47.991Z,11.90
2023-01-21T02:49:27.330Z,15.37
2023-01-21T02:51:55.173Z,11.73
2023-01-21T02:54:41.161Z,11.50
2023-01-21T02:57:31.178Z,10.43
2023-01-21T03:00:01.307Z,14.97
2023-01-21T03:02:56.500Z,14.83
2023-01-21T03:06:09.827Z,13.50
2023-01-21T03:09:25.433Z,11.27
2023-01-21T03:12:29.751Z,15.03
2023-01-21T03:15:50.515Z,11.02
2023-01-21T03:18:24.478Z,11.03
2023-01-21T03:21:07.317Z,14.73
2023-01-21T03:23:42.988Z,16.60
2023-01-21T03:26:14.526Z,12.77
2023-01-21T03:28:49.091Z,13.67
2023-01-21T03:31:23.993Z,13.13
2023-01-21T03:33:55.932Z,11.23
2023-01-21T03:36:58.697Z,18.60
2023-01-21T03:39:43.943Z,11.80
2023-01-21T03:42:13.340Z,13.60
2023-01-21T03:44:42.384Z,11.77
2023-01-21T03:47:36.392Z,14.93
2023-01-21T03:50:20.318Z,12.70
2023-01-21T03:52:48.278Z,13.05
2023-01-21T03:55:19.352Z,13.67
2023-01-21T03:57:47.436Z,15.23
2023-01-21T04:00:16.124Z,14.07
2023-01-21T04:02:44.330Z,19.40
2023-01-21T04:05:14.227Z,13.53
2023-01-21T04:07:41.927Z,14.00
2023-01-21T04:10:10.726Z,13.83
2023-01-21T04:12:38.729Z,14.47
2023-01-21T04:15:07.610Z,14.77
2023-01-21T04:17:35.336Z,13.23
2023-01-21T04:20:03.066Z,13.60
2023-01-21T04:22:30.792Z,13.37
2023-01-21T04:24:58.514Z,10.27
2023-01-21T04:27:26.229Z,15.43
2023-01-21T04:29:53.943Z,11.97
2023-01-21T04:32:21.671Z,12.83
2023-01-21T04:34:49.392Z,14.33
2023-01-21T04:37:17.133Z,15.43
2023-01-21T04:39:44.836Z,12.90
2023-01-21T04:42:12.557Z,13.93
2023-01-21T04:44:40.647Z,15.23
2023-01-21T04:47:08.371Z,11.43
2023-01-21T04:49:36.093Z,12.87
2023-01-21T04:52:04.179Z,14.20
2023-01-21T04:54:32.010Z,12.57
2023-01-21T04:56:59.753Z,20.30
2023-01-21T04:59:27.457Z,17.03
2023-01-21T05:01:55.190Z,21.23
2023-01-21T05:04:23.017Z,16.60
2023-01-21T05:06:50.744Z,16.87
2023-01-21T05:09:18.462Z,20.97
2023-01-21T05:11:46.307Z,19.83
2023-01-21T05:14:14.033Z,20.73
2023-01-21T05:16:41.908Z,20.40
2023-01-21T05:19:09.833Z,28.20
2023-01-21T05:21:37.673Z,26.07
2023-01-21T05:24:05.757Z,28.50
2023-01-21T05:26:33.482Z,33.17
2023-01-21T05:29:01.213Z,24.83
2023-01-21T05:31:29.151Z,28.87
2023-01-21T05:33:57.734Z,27.90
2023-01-21T05:36:25.449Z,32.60
2023-01-21T05:38:53.174Z,30.97
2023-01-21T05:41:20.896Z,38.37
2023-01-21T05:43:48.738Z,40.10
2023-01-21T05:46:17.324Z,36.63
2023-01-21T05:48:45.142Z,38.67
2023-01-21T05:51:13.158Z,41.90
2023-01-21T05:53:41.070Z,36.83
2023-01-21T05:56:08.907Z,37.57
2023-01-21T05:58:36.757Z,34.60
2023-01-21T06:01:04.712Z,34.93
2023-01-21T06:03:32.565Z,30.70
2023-01-21T06:06:00.397Z,31.37
2023-01-21T06:08:28.240Z,30.90
2023-01-21T06:10:56.443Z,34.57
2023-01-21T06:13:24.524Z,28.17
2023-01-21T06:15:56.539Z,32.27
2023-01-21T06:18:25.501Z,32.23
2023-01-21T06:20:53.825Z,31.33
2023-01-21T06:23:21.566Z,35.97
2023-01-21T06:25:49.259Z,31.57
2023-01-21T06:28:17.114Z,30.33
2023-01-21T06:30:45.324Z,22.83
2023-01-21T06:33:13.146Z,26.87
2023-01-21T06:35:40.984Z,24.37
2023-01-21T06:38:08.739Z,24.43
2023-01-21T06:40:36.428Z,26.43
2023-01-21T06:43:04.272Z,26.97
2023-01-21T06:45:32.008Z,26.07
2023-01-21T06:47:59.717Z,26.33
2023-01-21T06:50:27.578Z,23.23
2023-01-21T06:52:55.281Z,22.33
2023-01-21T06:55:23.005Z,27.43
2023-01-21T06:57:50.724Z,28.53
2023-01-21T07:00:19.641Z,20.70
2023-01-21T07:02:47.864Z,28.03
2023-01-21T07:05:16.043Z,21.50
2023-01-21T07:07:44.014Z,31.20
2023-01-21T07:10:12.105Z,31.50
2023-01-21T07:12:39.832Z,29.20
2023-01-21T07:15:08.620Z,25.37
2023-01-21T07:17:36.347Z,25.33
2023-01-21T07:20:05.166Z,23.33
2023-01-21T07:22:36.350Z,26.83
2023-01-21T07:25:05.511Z,23.93
2023-01-21T07:27:33.233Z,23.23
2023-01-21T07:30:00.969Z,25.23
2023-01-21T07:32:28.680Z,26.37
2023-01-21T07:34:56.644Z,25.03
2023-01-21T07:37:24.494Z,25.53
2023-01-21T07:39:54.503Z,23.40
2023-01-21T07:42:22.344Z,25.97
2023-01-21T07:44:50.171Z,22.47
2023-01-21T07:47:17.893Z,22.80
2023-01-21T07:49:45.614Z,23.70
2023-01-21T07:52:13.348Z,26.57
2023-01-21T07:54:42.021Z,23.00
2023-01-21T07:57:09.752Z,23.87
2023-01-21T07:59:37.465Z,29.60
2023-01-21T08:02:05.283Z,25.80
2023-01-21T08:04:33.033Z,24.27
2023-01-21T08:07:01.963Z,26.57
2023-01-21T08:09:29.794Z,26.53
2023-01-21T08:11:57.754Z,24.30
2023-01-21T08:14:25.493Z,21.53
2023-01-21T08:16:53.205Z,18.60
2023-01-21T08:19:20.925Z,18.73
2023-01-21T08:21:48.766Z,23.40
2023-01-21T08:24:16.488Z,22.40
2023-01-21T08:26:44.711Z,21.37
2023-01-21T08:29:12.412Z,22.73
2023-01-21T08:31:40.395Z,19.07
2023-01-21T08:34:08.222Z,24.50
2023-01-21T08:36:38.588Z,30.53
2023-01-21T08:39:06.460Z,25.80
2023-01-21T08:41:34.380Z,22.13
2023-01-21T08:44:02.230Z,21.33
2023-01-21T08:46:29.973Z,23.97
2023-01-21T08:48:57.670Z,37.47
2023-01-21T08:51:25.773Z,35.43
2023-01-21T08:53:53.596Z,29.90
2023-01-21T08:56:21.331Z,25.27
2023-01-21T08:58:54.683Z,23.33
2023-01-21T09:01:22.701Z,22.85
2023-01-21T09:03:57.834Z,19.80
2023-01-21T09:06:28.769Z,25.53
2023-01-21T09:08:57.011Z,18.90
2023-01-21T09:11:29.376Z,19.30
2023-01-21T09:14:00.610Z,22.53
2023-01-21T09:16:28.472Z,22.77
2023-01-21T09:18:56.861Z,23.13
2023-01-21T09:21:24.826Z,23.57
2023-01-21T09:23:52.561Z,19.50
2023-01-21T09:26:23.506Z,21.50
2023-01-21T09:28:58.432Z,31.90
2023-01-21T09:31:29.424Z,22.70
2023-01-21T09:34:03.861Z,21.63
2023-01-21T09:36:34.815Z,23.63
2023-01-21T09:39:02.887Z,17.10
2023-01-21T09:41:49.565Z,22.53
2023-01-21T09:44:39.986Z,19.80
2023-01-21T09:47:34.807Z,27.03
2023-01-21T09:50:10.347Z,21.43
2023-01-21T09:52:51.985Z,24.10
2023-01-21T09:55:41.294Z,20.20
2023-01-21T09:58:37.946Z,18.87
2023-01-21T10:01:34.387Z,17.77
2023-01-21T10:04:40.264Z,25.43
2023-01-21T10:07:27.789Z,20.17
2023-01-21T10:10:15.752Z,19.10
2023-01-21T10:13:20.551Z,18.60
2023-01-21T10:16:41.120Z,19.35
2023-01-21T10:19:19.746Z,18.10
2023-01-21T10:22:00.397Z,17.20
2023-01-21T10:24:45.283Z,17.37
2023-01-21T10:27:21.288Z,19.70
2023-01-21T10:29:54.408Z,19.87
2023-01-21T10:32:27.186Z,20.65
2023-01-21T10:34:57.812Z,24.53
2023-01-21T10:37:48.174Z,20.70
2023-01-21T10:40:44.247Z,19.97
2023-01-21T10:43:49.274Z,22.77
2023-01-21T10:48:55.751Z,22.20
2023-01-21T10:51:38.595Z,19.67
2023-01-21T10:54:39.090Z,26.27
2023-01-21T10:57:45.915Z,31.53
2023-01-21T11:00:32.837Z,30.27
2023-01-21T11:03:14.362Z,23.13
2023-01-21T11:05:43.047Z,25.00
2023-01-21T11:08:22.681Z,24.77
2023-01-21T11:10:55.181Z,21.20
2023-01-21T11:13:23.749Z,21.43
2023-01-21T11:15:55.211Z,21.33
2023-01-21T11:18:30.937Z,20.70
2023-01-21T11:21:22.815Z,18.20
2023-01-21T11:24:19.423Z,14.70
2023-01-21T11:27:15.224Z,24.60
2023-01-21T11:29:42.948Z,22.27
2023-01-21T11:32:24.024Z,21.03
2023-01-21T11:35:22.071Z,16.47
2023-01-21T11:37:50.168Z,17.80
2023-01-21T11:40:28.927Z,18.33
2023-01-21T11:42:57.361Z,23.83
2023-01-21T11:45:31.925Z,22.87
2023-01-21T11:48:01.093Z,26.13
2023-01-21T11:50:40.564Z,16.53
2023-01-21T11:53:09.058Z,21.73
2023-01-21T11:55:59.776Z,22.77
2023-01-21T11:58:36.771Z,21.03
2023-01-21T12:01:08.547Z,16.73
2023-01-21T12:03:53.746Z,19.10
2023-01-21T12:06:26.062Z,16.40
2023-01-21T12:09:00.261Z,19.17
2023-01-21T12:11:31.225Z,16.10
2023-01-21T12:14:17.472Z,20.70
2023-01-21T12:17:09.990Z,16.17
2023-01-21T12:19:49.959Z,18.33
2023-01-21T12:22:57.878Z,18.07
2023-01-21T12:25:40.849Z,18.40
2023-01-21T12:28:30.163Z,15.87
2023-01-21T12:31:07.546Z,19.97
2023-01-21T12:33:50.563Z,18.97
2023-01-21T12:36:29.939Z,18.33
2023-01-21T12:39:23.828Z,20.60
2023-01-21T12:42:29.383Z,17.08
2023-01-21T12:45:23.106Z,14.63
2023-01-21T12:48:14.823Z,20.08
2023-01-21T12:50:57.066Z,16.63
2023-01-21T12:54:07.033Z,20.20
2023-01-21T12:56:39.307Z,17.03
2023-01-21T12:59:43.873Z,18.10
2023-01-21T13:02:49.394Z,15.48
2023-01-21T13:05:50.248Z,25.13
2023-01-21T13:08:44.000Z,16.57
2023-01-21T13:11:23.493Z,21.45
2023-01-21T13:14:19.892Z,19.70
2023-01-21T13:16:58.172Z,20.00
2023-01-21T13:19:26.018Z,21.43
2023-01-21T13:22:48.964Z,24.40
2023-01-21T13:25:33.819Z,20.80
2023-01-21T13:28:39.580Z,21.00
2023-01-21T13:31:18.550Z,19.73
2023-01-21T13:33:49.424Z,21.20
2023-01-21T13:36:29.147Z,17.37
2023-01-21T13:39:17.272Z,22.53
2023-01-21T13:42:37.552Z,21.57
2023-01-21T13:45:24.410Z,27.03
2023-01-21T13:48:39.482Z,31.07
2023-01-21T13:51:47.530Z,25.70
2023-01-21T13:55:10.566Z,25.30
2023-01-21T13:58:02.936Z,23.40
2023-01-21T14:00:43.944Z,23.03
2023-01-21T14:03:35.061Z,22.83
2023-01-21T14:06:19.936Z,24.27
2023-01-21T14:09:16.577Z,25.73
2023-01-21T14:12:17.441Z,24.30
2023-01-21T14:15:29.446Z,25.70
2023-01-21T14:18:33.869Z,20.90
2023-01-21T14:21:49.472Z,19.55
2023-01-21T14:24:47.313Z,18.03
2023-01-21T14:27:26.916Z,17.30
2023-01-21T14:30:08.925Z,21.30
2023-01-21T14:32:57.413Z,21.43
2023-01-21T14:35:28.247Z,21.53
2023-01-21T14:38:46.969Z,22.60
2023-01-21T14:41:15.774Z,21.00
2023-01-21T14:43:44.368Z,18.63
2023-01-21T14:46:33.889Z,21.53
2023-01-21T14:49:10.400Z,30.10
2023-01-21T14:51:47.703Z,31.53
2023-01-21T14:54:26.827Z,23.70
2023-01-21T14:57:13.641Z,22.80
2023-01-21T14:59:46.744Z,18.20
2023-01-21T15:02:37.187Z,20.10
2023-01-21T15:05:26.128Z,13.57
2023-01-21T15:08:11.372Z,16.57
2023-01-21T15:10:41.361Z,15.50
2023-01-21T15:13:39.595Z,17.43
2023-01-21T15:16:16.318Z,25.23
2023-01-21T15:19:16.429Z,15.00
2023-01-21T15:22:18.689Z,20.87
2023-01-21T15:25:15.695Z,18.50
2023-01-21T15:28:40.650Z,16.93
2023-01-21T15:31:12.036Z,15.02
2023-01-21T15:33:47.291Z,15.27
2023-01-21T15:36:30.461Z,16.57
2023-01-21T15:39:12.956Z,14.70
2023-01-21T15:41:50.746Z,20.00
2023-01-21T15:44:48.239Z,14.03
2023-01-21T15:47:39.115Z,16.77
2023-01-21T15:50:25.082Z,15.20
2023-01-21T15:53:50.638Z,13.77
2023-01-21T15:56:57.300Z,18.73
2023-01-21T15:59:34.805Z,17.77
2023-01-21T16:02:28.266Z,18.63
2023-01-21T16:05:20.406Z,16.53
2023-01-21T16:08:14.184Z,15.13
2023-01-21T16:11:11.080Z,13.23
2023-01-21T16:13:51.859Z,14.13
2023-01-21T16:16:56.068Z,10.67
2023-01-21T16:19:35.187Z,12.55
2023-01-21T16:22:07.657Z,14.20
2023-01-21T16:24:49.838Z,12.47
2023-01-21T16:27:28.237Z,10.30
2023-01-21T16:30:11.823Z,13.60
2023-01-21T16:32:39.516Z,11.38
2023-01-21T16:35:08.077Z,13.97
2023-01-21T16:37:36.290Z,14.67
2023-01-21T16:40:12.883Z,20.90
2023-01-21T16:42:41.685Z,29.63
2023-01-21T16:45:14.859Z,22.10
2023-01-21T16:47:43.010Z,17.70
2023-01-21T16:50:24.775Z,12.73
2023-01-21T16:52:54.442Z,17.80
2023-01-21T16:55:27.790Z,14.20
2023-01-21T16:57:59.109Z,11.65
2023-01-21T17:00:31.024Z,12.70
2023-01-21T17:03:00.622Z,11.57
2023-01-21T17:05:34.524Z,14.83
2023-01-21T17:08:09.914Z,25.90
2023-01-21T17:10:52.637Z,74.20
2023-01-21T17:13:22.655Z,31.63
2023-01-21T17:16:00.696Z,17.63
2023-01-21T17:18:34.175Z,19.53
2023-01-21T17:21:14.848Z,23.67
2023-01-21T17:24:07.788Z,20.20
2023-01-21T17:26:41.971Z,13.40
2023-01-21T17:29:21.933Z,16.63
2023-01-21T17:32:02.787Z,13.30
2023-01-21T17:34:36.599Z,17.13
2023-01-21T17:38:03.837Z,16.08
2023-01-21T17:40:58.783Z,13.27
2023-01-21T17:43:28.068Z,16.23
2023-01-21T17:45:58.025Z,14.27
2023-01-21T17:48:46.317Z,13.33
2023-01-21T17:51:30.180Z,15.43
2023-01-21T17:54:00.838Z,16.40
2023-01-21T17:56:50.527Z,12.10
2023-01-21T17:59:40.921Z,16.60
2023-01-21T18:02:17.044Z,15.20
2023-01-21T18:04:45.644Z,16.13
2023-01-21T18:07:24.624Z,20.00
2023-01-21T18:09:54.248Z,19.47
2023-01-21T18:12:22.331Z,21.27
2023-01-21T18:14:50.175Z,19.93
2023-01-21T18:17:20.777Z,21.23
2023-01-21T18:19:48.625Z,26.53
2023-01-21T18:22:28.234Z,24.90
2023-01-21T18:24:56.324Z,22.13
2023-01-21T18:27:26.102Z,28.50
2023-01-21T18:29:54.758Z,22.20
2023-01-21T18:32:22.479Z,23.73
2023-01-21T18:34:50.338Z,22.83
2023-01-21T18:37:20.081Z,24.87
2023-01-21T18:39:47.921Z,25.37
2023-01-21T18:42:18.045Z,27.53
2023-01-21T18:44:46.019Z,25.83
2023-01-21T18:47:16.971Z,25.73
2023-01-21T18:49:45.893Z,42.50
2023-01-21T18:52:17.717Z,27.27
2023-01-21T18:54:45.657Z,30.87
2023-01-21T18:57:21.422Z,35.00
2023-01-21T18:59:49.279Z,24.17
2023-01-21T19:02:20.388Z,25.63
2023-01-21T19:04:48.551Z,25.93
2023-01-21T19:07:19.033Z,23.80
2023-01-21T19:09:49.152Z,24.23
2023-01-21T19:12:21.088Z,25.20
2023-01-21T19:14:49.167Z,25.80
2023-01-21T19:17:35.130Z,22.87
2023-01-21T19:20:02.960Z,24.17
2023-01-21T19:22:30.678Z,22.63
2023-01-21T19:24:58.408Z,20.70
2023-01-21T19:27:31.653Z,19.43
2023-01-21T19:29:59.370Z,27.98
2023-01-21T19:32:27.215Z,21.97
2023-01-21T19:34:57.703Z,26.07
2023-01-21T19:37:25.789Z,22.53
2023-01-21T19:39:53.618Z,27.50
2023-01-21T19:42:21.339Z,22.20
2023-01-21T19:44:49.080Z,26.10
2023-01-21T19:47:28.910Z,23.73
2023-01-21T19:49:56.752Z,27.77
2023-01-21T19:52:24.588Z,26.13
2023-01-21T19:54:54.824Z,26.67
2023-01-21T19:57:22.792Z,37.17
2023-01-21T19:59:52.922Z,28.63
2023-01-21T20:02:20.712Z,25.63
2023-01-21T20:04:48.478Z,23.47
2023-01-21T20:07:16.705Z,25.07
2023-01-21T20:09:44.409Z,26.13
2023-01-21T20:12:13.457Z,22.17
2023-01-21T20:14:41.289Z,22.23
2023-01-21T20:17:13.213Z,24.57
2023-01-21T20:19:41.067Z,28.63
2023-01-21T20:22:13.221Z,23.50
2023-01-21T20:24:40.940Z,21.20
2023-01-21T20:27:14.272Z,21.73
2023-01-21T20:29:49.663Z,24.45
2023-01-21T20:32:23.430Z,18.17
2023-01-21T20:34:51.148Z,23.50
2023-01-21T20:37:18.869Z,23.80
2023-01-21T20:39:46.713Z,23.37
2023-01-21T20:42:14.436Z,24.03
2023-01-21T20:44:42.165Z,24.37
2023-01-21T20:47:11.208Z,24.93
2023-01-21T20:49:38.921Z,21.83
2023-01-21T20:52:06.765Z,27.87
2023-01-21T20:54:34.494Z,22.73
2023-01-21T20:57:03.816Z,19.77
2023-01-21T20:59:31.496Z,25.93
2023-01-21T21:01:59.248Z,24.07
2023-01-21T21:04:29.117Z,23.80
2023-01-21T21:06:56.821Z,30.77
2023-01-21T21:09:24.551Z,26.70
2023-01-21T21:11:52.263Z,31.90
2023-01-21T21:14:20.719Z,22.63
2023-01-21T21:16:48.492Z,32.57
2023-01-21T21:19:16.389Z,26.53
2023-01-21T21:21:44.122Z,23.93
2023-01-21T21:24:11.836Z,29.43
2023-01-21T21:26:41.018Z,25.27
2023-01-21T21:29:15.681Z,27.37
2023-01-21T21:31:43.465Z,25.10
2023-01-21T21:34:12.205Z,22.97
2023-01-21T21:36:42.327Z,23.60
2023-01-21T21:39:10.049Z,25.23
2023-01-21T21:41:56.254Z,27.93
2023-01-21T21:44:23.976Z,23.47
2023-01-21T21:47:10.297Z,28.93
2023-01-21T21:49:38.034Z,22.23
2023-01-21T21:52:05.863Z,26.17
2023-01-21T21:54:33.591Z,21.47
2023-01-21T21:57:01.315Z,20.57
2023-01-21T21:59:29.170Z,19.30
2023-01-21T22:01:58.525Z,25.87
2023-01-21T22:04:26.280Z,28.03
2023-01-21T22:06:53.995Z,21.90
2023-01-21T22:09:21.838Z,22.13
2023-01-21T22:11:49.686Z,29.50
2023-01-21T22:14:18.006Z,19.30
2023-01-21T22:16:45.911Z,19.13
2023-01-21T22:19:13.688Z,25.67
2023-01-21T22:21:41.423Z,21.83
2023-01-21T22:24:10.220Z,21.10
2023-01-21T22:26:38.187Z,19.03
2023-01-21T22:29:06.378Z,25.53
2023-01-21T22:31:34.721Z,21.73
2023-01-21T22:34:02.444Z,22.07
2023-01-21T22:36:31.473Z,19.50
2023-01-21T22:38:59.921Z,22.00
2023-01-21T22:41:28.470Z,24.40
2023-01-21T22:43:56.553Z,24.17
2023-01-21T22:46:30.167Z,25.17
2023-01-21T22:48:58.477Z,20.70
2023-01-21T22:51:26.662Z,19.53
2023-01-21T22:53:54.880Z,19.27
2023-01-21T22:56:44.970Z,20.37
2023-01-21T22:59:13.986Z,20.77
2023-01-21T23:01:42.369Z,21.17
2023-01-21T23:04:10.390Z,24.80
2023-01-21T23:06:38.215Z,21.77
2023-01-21T23:09:09.181Z,21.77
2023-01-21T23:11:39.660Z,18.48
2023-01-21T23:14:09.930Z,20.90
2023-01-21T23:16:37.744Z,19.53
2023-01-21T23:19:05.704Z,21.13
2023-01-21T23:21:33.672Z,22.97
2023-01-21T23:24:01.633Z,19.37
2023-01-21T23:26:29.473Z,23.20
2023-01-21T23:28:58.165Z,19.50
2023-01-21T23:31:26.115Z,18.27
2023-01-21T23:33:58.766Z,20.97
2023-01-21T23:36:26.609Z,22.13
2023-01-21T23:38:54.325Z,19.87
2023-01-21T23:41:22.284Z,18.80
2023-01-21T23:43:50.014Z,18.03
2023-01-21T23:46:19.787Z,18.47
2023-01-21T23:48:47.984Z,17.83
2023-01-21T23:51:18.284Z,20.23
2023-01-21T23:53:48.958Z,16.40
2023-01-21T23:56:21.949Z,19.93
2023-01-21T23:58:50.861Z,15.53
